Impacts TAF Board
For situational awareness. Not to be used for flight planning purposes.
IDs:

KTEX - Telluride Rgnl, CO, US

Issued at 0531 UTC 27 Feb 2020
Updated at 0832 UTC 27 Feb 2020
Potential Impact None Slight Moderate High
Time0815Z 27/09Z 27/10Z 27/11Z 27/12Z 27/13Z 27/14Z 27/15Z 27/16Z 27/17Z 27/18Z 27/19Z 27/20Z 27/21Z>>
Type OBS PRVL PRVL PRVL PRVL PRVL PRVL PRVL PRVL PRVL PRVL PRVL PRVL PRVL
VIS 10 >6 >6 >6 >6 >6 >6 >6 >6 >6 >6 >6 >6 >6
CIG 42 -- -- -- -- -- -- -- -- -- -- -- -- --
Cover OVC SCT SCT FEW FEW FEW FEW FEW FEW FEW FEW FEW FEW FEW
FltCat VFR VFR VFR VFR VFR VFR VFR VFR VFR VFR VFR VFR VFR VFR
WX -- -- -- -- -- -- -- -- -- -- -- -- -- --
WDir 130 VRB VRB VRB VRB VRB VRB VRB VRB VRB VRB 270 270 270
WSpd 5 3 3 4 4 4 4 4 4 4 4 6 6 6
WGst -- -- -- -- -- -- -- -- -- -- -- 14 14 14
Raw TAF
KTEX 270531Z 2706/2806 VRB03KT P6SM SCT050
  FM271100 VRB04KT P6SM FEW045 FEW250
  FM271500 VRB04KT P6SM FEW060 FEW250
  FM271900 27006G14KT P6SM FEW060 FEW250
  FM280000 VRB04KT P6SM FEW090 FEW250


Raw METAR
KTEX 270815Z AUTO 13005KT 10SM OVC042 M06/M14 A3034 RMK AO2
KTEX 270755Z AUTO 12003KT 10SM OVC046 M06/M14 A3035 RMK AO2
KTEX 270735Z AUTO 14005KT 10SM OVC046 M06/M14 A3035 RMK AO2
KTEX 270715Z AUTO 00000KT 10SM OVC044 M06/M13 A3035 RMK AO2
KTEX 270655Z AUTO 00000KT 10SM OVC042 M06/M13 A3036 RMK AO2
KTEX 270635Z AUTO 14004KT 10SM OVC042 M06/M14 A3036 RMK AO2
KTEX 270615Z AUTO 00000KT 10SM OVC044 M07/M14 A3037 RMK AO2
KTEX 270555Z AUTO 13004KT 10SM BKN046 M07/M14 A3037 RMK AO2
KTEX 270535Z AUTO 13003KT 10SM SCT046 M07/M15 A3037 RMK AO2

METAR Board
Radar Display
Forecast Discussion
For situational awareness. Not to be used for flight planning purposes.